Time;durP1;ratioP1;P1;durP2;ratioP2;P2;SDS_P1;SDS_P2;PMS_P1;PMS_P2;Temp;Humidity;BMP_temperature;BMP_pressure;BME280_temperature;BME280_humidity;BME280_pressure;Samples;Min_cycle;Max_cycle;Signal;HPM_P1;HPM_P2
2023/08/14 00:02:02;;;;;;;6.40;1.90;;;;;;;20.65;84.39;100435.95;110374;1276;22314;-81
2023/08/14 00:04:33;;;;;;;7.20;2.20;;;;;;;20.66;84.44;100434.46;110387;1276;22401;-82
2023/08/14 00:07:03;;;;;;;7.60;2.00;;;;;;;20.66;84.53;100427.81;110361;1276;22185;-81
2023/08/14 00:09:35;;;;;;;6.10;2.00;;;;;;;20.67;84.55;100428.42;110410;1276;22207;-81
2023/08/14 00:12:06;;;;;;;7.50;2.40;;;;;;;20.67;84.78;100433.27;110375;1276;22531;-81
2023/08/14 00:14:37;;;;;;;5.80;1.90;;;;;;;20.66;84.98;100439.41;110395;1276;22178;-81
2023/08/14 00:17:08;;;;;;;7.90;1.80;;;;;;;20.64;84.93;100443.89;110421;1276;22381;-81
2023/08/14 00:19:39;;;;;;;11.80;1.90;;;;;;;20.63;84.82;100441.02;110389;1276;22177;-82
2023/08/14 00:22:11;;;;;;;6.60;2.10;;;;;;;20.61;84.58;100443.98;110354;1276;22332;-82
2023/08/14 00:24:42;;;;;;;5.70;1.70;;;;;;;20.60;84.67;100446.02;110362;1275;23498;-81
2023/08/14 00:27:13;;;;;;;8.80;2.40;;;;;;;20.59;84.49;100449.90;110386;1276;22216;-82
2023/08/14 00:29:45;;;;;;;7.80;2.50;;;;;;;20.59;84.85;100451.81;110344;1276;23442;-81
2023/08/14 00:32:16;;;;;;;4.90;1.90;;;;;;;20.58;84.87;100457.05;110382;1276;22245;-82
2023/08/14 00:34:46;;;;;;;5.50;1.80;;;;;;;20.56;84.74;100455.52;110361;1276;22213;-81
2023/08/14 00:37:17;;;;;;;6.60;1.80;;;;;;;20.56;84.84;100459.30;110341;1273;22280;-82
2023/08/14 00:39:48;;;;;;;6.80;2.10;;;;;;;20.54;84.91;100460.32;110388;1276;22312;-81
2023/08/14 00:42:19;;;;;;;7.50;1.90;;;;;;;20.53;84.89;100460.79;110382;1276;22172;-82
2023/08/14 00:44:49;;;;;;;11.60;2.50;;;;;;;20.52;85.18;100458.90;110347;1277;22347;-82
2023/08/14 00:47:20;;;;;;;7.90;2.40;;;;;;;20.52;85.59;100460.55;110356;1276;22153;-82
2023/08/14 00:49:51;;;;;;;10.10;2.70;;;;;;;20.49;85.63;100449.92;110309;1276;22239;-81
2023/08/14 00:52:22;;;;;;;8.00;2.40;;;;;;;20.49;85.79;100446.02;110348;1272;22261;-81
2023/08/14 00:54:53;;;;;;;9.50;2.70;;;;;;;20.48;86.03;100446.39;110366;1277;22172;-81
2023/08/14 00:57:23;;;;;;;6.40;2.10;;;;;;;20.46;86.31;100452.71;110359;1277;22168;-82
2023/08/14 00:59:54;;;;;;;6.20;1.70;;;;;;;20.43;86.26;100453.71;110351;1276;22393;-81
2023/08/14 01:02:25;;;;;;;5.40;1.80;;;;;;;20.41;86.35;100456.11;110357;1275;22194;-81
2023/08/14 01:04:56;;;;;;;6.60;1.80;;;;;;;20.40;86.57;100457.12;110371;1270;22915;-81
2023/08/14 01:07:29;;;;;;;6.20;1.60;;;;;;;20.39;86.59;100455.27;110357;1277;22196;-82
2023/08/14 01:10:02;;;;;;;8.30;2.60;;;;;;;20.37;86.73;100462.46;110328;1276;22258;-82
2023/08/14 01:12:42;;;;;;;5.90;2.20;;;;;;;20.36;86.87;100463.16;110395;1276;22441;-81
2023/08/14 01:15:13;;;;;;;;;;;;;;;20.34;86.92;100467.48;110386;1276;22343;-81
2023/08/14 01:17:49;;;;;;;8.10;2.20;;;;;;;20.32;87.02;100473.43;110348;1276;22314;-81
2023/08/14 01:20:22;;;;;;;7.00;1.90;;;;;;;20.32;86.64;100471.27;110363;1276;22199;-83
2023/08/14 01:23:04;;;;;;;9.10;2.30;;;;;;;20.33;86.85;100462.96;110370;1263;22285;-81
2023/08/14 01:25:38;;;;;;;5.20;1.90;;;;;;;20.34;86.86;100462.08;110332;1276;22169;-81
2023/08/14 01:28:10;;;;;;;8.60;2.30;;;;;;;20.34;87.10;100463.10;110362;1270;23207;-81
2023/08/14 01:30:42;;;;;;;8.70;2.00;;;;;;;20.34;87.00;100460.15;110359;1276;22332;-82
2023/08/14 01:33:13;;;;;;;9.00;2.40;;;;;;;20.35;87.04;100453.02;110357;1271;22195;-81
2023/08/14 01:35:46;;;;;;;6.20;2.20;;;;;;;20.36;87.45;100452.95;110365;1276;22162;-82
2023/08/14 01:38:27;;;;;;;10.00;2.30;;;;;;;20.35;87.88;100452.83;110367;1271;22262;-82
2023/08/14 01:41:06;;;;;;;6.60;2.00;;;;;;;20.31;88.10;100451.70;110352;1270;22249;-81
2023/08/14 01:43:41;;;;;;;6.10;2.00;;;;;;;20.26;88.02;100463.48;110196;1273;23616;-81
2023/08/14 01:46:13;;;;;;;7.80;1.90;;;;;;;20.23;88.34;100461.77;110369;1276;23076;-82
2023/08/14 01:48:47;;;;;;;8.90;2.80;;;;;;;20.23;88.19;100459.09;110365;1273;22190;-82
2023/08/14 01:51:18;;;;;;;9.70;2.50;;;;;;;20.25;88.34;100456.48;110336;1272;22325;-81
2023/08/14 01:53:49;;;;;;;6.40;2.20;;;;;;;20.28;88.32;100454.75;110351;1274;22272;-81
2023/08/14 01:56:19;;;;;;;5.70;2.00;;;;;;;20.29;88.53;100462.67;110337;1276;22475;-81
2023/08/14 01:58:50;;;;;;;10.40;2.10;;;;;;;20.30;88.61;100460.50;110350;1276;22244;-81
2023/08/14 02:01:20;;;;;;;8.20;2.20;;;;;;;20.30;88.50;100466.89;110341;1264;22392;-81
2023/08/14 02:03:51;;;;;;;8.00;2.20;;;;;;;20.30;88.65;100467.23;110366;1276;22202;-82
2023/08/14 02:06:22;;;;;;;7.00;2.00;;;;;;;20.30;88.58;100466.63;110359;1270;22156;-82
2023/08/14 02:08:53;;;;;;;8.40;2.00;;;;;;;20.28;88.68;100465.30;110399;1273;23111;-82
2023/08/14 02:11:24;;;;;;;7.60;2.10;;;;;;;20.25;88.74;100459.95;110341;1270;22117;-81
2023/08/14 02:13:54;;;;;;;9.80;2.50;;;;;;;20.22;88.68;100454.42;110385;1276;22154;-81
2023/08/14 02:16:25;;;;;;;8.80;2.00;;;;;;;20.22;88.60;100449.85;110355;1273;22159;-81
2023/08/14 02:18:56;;;;;;;8.30;2.40;;;;;;;20.22;88.33;100446.23;110376;1276;22394;-81
2023/08/14 02:21:27;;;;;;;5.60;1.80;;;;;;;20.22;88.59;100447.78;110342;1267;22268;-83
2023/08/14 02:23:58;;;;;;;7.60;2.30;;;;;;;20.22;88.77;100449.74;110366;1276;22389;-81
2023/08/14 02:26:28;;;;;;;9.60;2.20;;;;;;;20.21;88.58;100445.33;110347;1276;22940;-81
2023/08/14 02:28:59;;;;;;;9.20;2.50;;;;;;;20.20;88.54;100441.92;110368;1267;22216;-81
2023/08/14 02:31:30;;;;;;;8.00;2.50;;;;;;;20.17;88.61;100442.98;110330;1276;23266;-81
2023/08/14 02:34:02;;;;;;;8.80;2.10;;;;;;;20.15;88.17;100437.20;106198;1270;5393975;-81
2023/08/14 02:36:33;;;;;;;8.30;2.30;;;;;;;20.14;88.23;100432.64;110351;1276;22320;-82
2023/08/14 02:39:04;;;;;;;7.90;2.50;;;;;;;20.10;88.39;100433.41;110327;1276;22207;-82
2023/08/14 02:41:35;;;;;;;5.50;2.00;;;;;;;20.08;88.48;100434.90;110376;1276;22169;-82
2023/08/14 02:44:06;;;;;;;8.50;2.10;;;;;;;20.06;88.31;100427.98;110337;1276;22239;-81
2023/08/14 02:46:36;;;;;;;10.50;2.80;;;;;;;20.04;88.22;100427.64;110345;1276;22203;-81
2023/08/14 02:49:07;;;;;;;7.90;2.10;;;;;;;20.03;88.34;100429.09;110364;1270;22349;-81
2023/08/14 02:51:38;;;;;;;9.30;2.60;;;;;;;20.00;88.50;100429.94;110353;1276;22335;-81
2023/08/14 02:54:09;;;;;;;6.40;2.00;;;;;;;19.96;88.92;100435.81;110352;1270;22180;-81
2023/08/14 02:56:39;;;;;;;9.70;2.10;;;;;;;19.92;88.69;100439.63;110358;1269;22978;-82
2023/08/14 02:59:10;;;;;;;9.40;2.20;;;;;;;19.92;88.61;100437.29;110341;1276;22527;-81
2023/08/14 03:01:41;;;;;;;8.10;2.20;;;;;;;19.90;88.32;100429.47;110347;1276;23524;-81
2023/08/14 03:04:11;;;;;;;8.10;2.20;;;;;;;19.88;88.40;100426.05;110370;1276;22342;-83
2023/08/14 03:06:42;;;;;;;8.30;2.30;;;;;;;19.85;88.17;100422.19;110321;1269;22520;-82
2023/08/14 03:09:13;;;;;;;6.80;1.90;;;;;;;19.83;87.85;100421.70;110365;1276;22301;-81
2023/08/14 03:11:44;;;;;;;8.60;2.30;;;;;;;19.82;87.99;100417.95;110359;1276;22202;-83
2023/08/14 03:14:14;;;;;;;13.30;2.10;;;;;;;19.82;88.27;100412.70;110331;1266;22364;-81
2023/08/14 03:16:45;;;;;;;8.30;2.10;;;;;;;19.81;88.18;100413.65;110342;1276;22437;-81
2023/08/14 03:19:16;;;;;;;8.60;2.30;;;;;;;19.79;88.15;100414.14;110376;1266;22258;-82
2023/08/14 03:21:50;;;;;;;8.90;2.50;;;;;;;19.76;88.12;100418.10;110331;1276;22262;-82
2023/08/14 03:24:21;;;;;;;7.30;2.10;;;;;;;19.74;88.57;100424.06;110191;1276;22155;-82
2023/08/14 03:26:52;;;;;;;7.30;2.10;;;;;;;19.70;88.64;100430.51;110326;1271;22205;-83
2023/08/14 03:29:24;;;;;;;10.00;2.10;;;;;;;19.67;88.28;100426.58;110308;1276;22800;-83
2023/08/14 03:31:55;;;;;;;8.30;2.00;;;;;;;19.66;88.33;100425.84;110337;1276;22148;-83
2023/08/14 03:34:26;;;;;;;10.50;2.90;;;;;;;19.62;88.87;100432.89;110337;1276;22351;-82
2023/08/14 03:36:56;;;;;;;9.20;2.70;;;;;;;19.55;89.03;100442.94;110345;1276;22205;-83
2023/08/14 03:39:27;;;;;;;8.80;2.50;;;;;;;19.50;89.00;100448.63;110221;1272;22616;-83
2023/08/14 03:41:58;;;;;;;12.40;2.30;;;;;;;19.47;88.92;100443.92;110389;1276;22183;-83
2023/08/14 03:44:29;;;;;;;8.30;2.20;;;;;;;19.44;89.11;100446.48;110394;1276;22276;-82
2023/08/14 03:47:00;;;;;;;10.50;2.80;;;;;;;19.42;89.10;100455.23;110322;1276;23398;-82
2023/08/14 03:49:30;;;;;;;8.60;2.50;;;;;;;19.38;89.16;100457.08;110323;1276;22219;-82
2023/08/14 03:52:01;;;;;;;6.70;2.10;;;;;;;19.24;88.74;100461.55;110328;1276;22354;-83
2023/08/14 03:54:32;;;;;;;14.60;3.80;;;;;;;19.10;88.82;100459.46;110284;1276;22238;-82
2023/08/14 03:57:03;;;;;;;11.30;3.10;;;;;;;19.02;89.18;100455.45;110312;1276;22261;-85
2023/08/14 03:59:34;;;;;;;12.30;2.30;;;;;;;18.98;89.47;100450.95;110324;1276;22198;-84
2023/08/14 04:02:04;;;;;;;9.20;2.20;;;;;;;19.00;89.36;100455.26;110330;1276;22191;-85
2023/08/14 04:04:35;;;;;;;9.90;2.80;;;;;;;19.01;89.16;100450.73;110357;1276;22291;-85
2023/08/14 04:07:06;;;;;;;8.40;2.00;;;;;;;19.03;88.94;100453.59;110347;1276;22174;-86
2023/08/14 04:09:37;;;;;;;6.90;2.20;;;;;;;19.04;88.67;100453.20;110365;1276;22215;-86
2023/08/14 04:12:09;;;;;;;12.40;2.70;;;;;;;19.06;88.59;100456.92;110371;1271;23209;-86
2023/08/14 04:14:40;;;;;;;10.20;2.80;;;;;;;19.08;88.70;100458.14;110363;1276;22201;-84
2023/08/14 04:17:11;;;;;;;11.10;2.30;;;;;;;19.10;88.89;100456.37;110308;1276;22161;-85
2023/08/14 04:19:42;;;;;;;15.00;3.70;;;;;;;19.11;89.32;100452.95;110306;1276;22168;-84
2023/08/14 04:22:13;;;;;;;9.50;3.00;;;;;;;19.13;89.56;100460.98;110335;1276;22380;-85
2023/08/14 04:24:44;;;;;;;10.60;2.60;;;;;;;19.16;89.96;100468.44;110334;1276;23538;-83
2023/08/14 04:27:14;;;;;;;9.50;2.20;;;;;;;19.18;89.75;100468.16;110312;1270;22215;-79
2023/08/14 04:29:45;;;;;;;8.50;2.10;;;;;;;19.23;89.91;100473.60;110332;1272;22223;-80
2023/08/14 04:32:16;;;;;;;8.50;2.40;;;;;;;19.28;90.13;100471.89;110351;1276;22201;-79
2023/08/14 04:34:46;;;;;;;8.90;2.10;;;;;;;19.33;90.69;100474.58;110310;1276;22458;-80
2023/08/14 04:37:17;;;;;;;7.10;2.10;;;;;;;19.40;91.09;100469.04;110319;1273;22233;-79
2023/08/14 04:39:48;;;;;;;6.40;1.80;;;;;;;19.46;91.37;100467.40;110316;1270;22201;-81
2023/08/14 04:42:19;;;;;;;5.00;1.60;;;;;;;19.53;91.90;100469.64;110367;1270;22159;-82
2023/08/14 04:44:50;;;;;;;6.20;1.50;;;;;;;19.58;91.83;100469.41;110339;1276;23597;-82
2023/08/14 04:47:21;;;;;;;4.80;1.70;;;;;;;19.65;91.79;100475.29;110341;1267;22383;-79
2023/08/14 04:49:52;;;;;;;3.90;1.40;;;;;;;19.72;91.94;100476.88;110306;1276;22348;-81
2023/08/14 04:52:22;;;;;;;7.50;1.40;;;;;;;19.81;91.96;100476.90;110335;1276;22308;-81
2023/08/14 04:54:53;;;;;;;8.30;1.70;;;;;;;19.89;92.20;100481.61;110345;1270;22417;-82
2023/08/14 04:57:24;;;;;;;8.80;1.60;;;;;;;19.97;92.25;100487.58;110344;1269;22245;-83
2023/08/14 04:59:54;;;;;;;6.90;1.50;;;;;;;20.06;92.38;100474.16;110310;1270;22269;-81
2023/08/14 05:02:25;;;;;;;12.40;2.30;;;;;;;20.16;92.75;100481.29;110364;1269;22115;-81
2023/08/14 05:04:56;;;;;;;7.90;1.70;;;;;;;20.24;92.86;100480.27;110374;1270;22928;-81
2023/08/14 05:07:27;;;;;;;6.90;2.20;;;;;;;20.30;93.10;100480.95;110333;1270;22980;-82
2023/08/14 05:09:58;;;;;;;5.60;1.50;;;;;;;20.35;92.94;100480.70;110346;1276;22181;-82
2023/08/14 05:12:29;;;;;;;9.20;1.70;;;;;;;20.43;93.07;100488.66;110330;1276;22289;-81
2023/08/14 05:14:59;;;;;;;6.10;1.90;;;;;;;20.52;93.23;100487.17;110264;1273;22810;-81
2023/08/14 05:17:30;;;;;;;5.50;1.40;;;;;;;20.60;93.24;100491.31;110323;1276;22396;-81
2023/08/14 05:20:01;;;;;;;8.70;2.10;;;;;;;20.67;93.18;100487.73;110303;1276;22182;-80
2023/08/14 05:22:32;;;;;;;8.00;1.70;;;;;;;20.75;93.20;100487.25;110327;1276;23312;-82
2023/08/14 05:25:02;;;;;;;6.50;1.90;;;;;;;20.84;93.33;100488.02;110319;1276;22184;-80
2023/08/14 05:27:38;;;;;;;6.30;1.80;;;;;;;20.92;93.21;100492.65;110275;1276;22194;-81
2023/08/14 05:30:13;;;;;;;9.00;2.00;;;;;;;21.03;93.61;100495.38;110304;1270;22399;-80
2023/08/14 05:32:46;;;;;;;7.70;2.10;;;;;;;21.12;93.68;100495.09;110319;1276;23617;-82
2023/08/14 05:35:22;;;;;;;8.40;2.10;;;;;;;21.18;93.39;100500.33;110323;1276;22235;-80
2023/08/14 05:37:55;;;;;;;7.40;1.90;;;;;;;21.23;93.35;100496.88;110319;1270;22250;-80
2023/08/14 05:40:26;;;;;;;8.60;2.20;;;;;;;21.32;93.48;100500.61;110317;1276;22194;-82
2023/08/14 05:43:09;;;;;;;8.50;2.00;;;;;;;21.38;93.31;100497.08;110323;1270;22449;-81
2023/08/14 05:45:43;;;;;;;6.40;1.80;;;;;;;21.46;93.27;100507.96;110310;1270;22196;-83
2023/08/14 05:48:14;;;;;;;7.30;2.00;;;;;;;21.53;93.70;100506.52;110304;1269;22309;-80
2023/08/14 05:50:45;;;;;;;8.80;2.60;;;;;;;21.60;93.74;100512.88;110345;1276;22163;-81
2023/08/14 05:53:16;;;;;;;6.70;2.00;;;;;;;21.68;93.93;100515.17;110333;1274;22346;-81
2023/08/14 05:55:46;;;;;;;12.80;2.30;;;;;;;21.79;94.11;100514.02;110292;1276;22306;-81
2023/08/14 05:58:17;;;;;;;8.80;1.90;;;;;;;21.87;94.01;100511.22;110341;1276;22181;-81
2023/08/14 06:00:49;;;;;;;6.60;2.00;;;;;;;21.95;93.99;100510.20;110319;1276;23056;-80
2023/08/14 06:03:20;;;;;;;9.40;2.50;;;;;;;22.03;93.96;100516.80;110316;1276;22320;-80
2023/08/14 06:05:51;;;;;;;7.10;1.90;;;;;;;22.12;93.95;100520.30;110360;1270;22228;-81
2023/08/14 06:08:21;;;;;;;11.60;1.90;;;;;;;22.21;93.51;100519.89;110298;1269;22173;-80
2023/08/14 06:10:52;;;;;;;6.50;1.70;;;;;;;22.26;93.09;100525.40;110329;1273;23161;-81
2023/08/14 06:13:23;;;;;;;8.00;2.00;;;;;;;22.30;92.77;100524.31;110291;1276;22346;-82
2023/08/14 06:15:54;;;;;;;7.50;2.10;;;;;;;22.36;92.65;100524.29;110346;1276;22209;-80
2023/08/14 06:18:25;;;;;;;10.80;2.10;;;;;;;22.40;92.45;100523.23;110298;1269;22226;-82
2023/08/14 06:20:56;;;;;;;10.20;1.80;;;;;;;22.44;92.51;100523.39;110312;1270;23532;-81
2023/08/14 06:23:27;;;;;;;8.10;1.70;;;;;;;22.50;92.32;100532.50;110369;1265;22203;-82
2023/08/14 06:25:59;;;;;;;9.40;2.40;;;;;;;22.58;92.02;100535.02;110273;1276;22223;-80
2023/08/14 06:28:30;;;;;;;8.70;1.90;;;;;;;22.64;91.62;100533.69;110337;1276;22184;-82
2023/08/14 06:31:03;;;;;;;8.90;2.10;;;;;;;22.73;91.90;100530.94;110225;1270;22320;-82
2023/08/14 06:33:34;;;;;;;6.90;1.90;;;;;;;22.81;91.68;100530.13;110264;1276;23099;-81
2023/08/14 06:36:05;;;;;;;6.70;2.00;;;;;;;22.88;90.92;100533.11;110310;1269;22181;-81
2023/08/14 06:38:36;;;;;;;9.00;1.50;;;;;;;22.95;90.71;100531.52;110320;1269;22314;-80
2023/08/14 06:41:07;;;;;;;5.40;2.10;;;;;;;23.03;90.91;100535.75;110315;1276;22178;-84
2023/08/14 06:43:38;;;;;;;4.60;1.60;;;;;;;23.11;91.14;100536.30;110285;1270;22406;-82
2023/08/14 06:46:09;;;;;;;4.40;1.90;;;;;;;23.21;90.98;100536.45;110321;1270;22314;-83
2023/08/14 06:48:39;;;;;;;4.60;1.50;;;;;;;23.30;90.94;100531.58;110295;1270;23021;-82
2023/08/14 06:51:10;;;;;;;5.40;1.60;;;;;;;23.40;90.79;100528.23;110312;1269;22300;-82
2023/08/14 06:53:41;;;;;;;6.50;1.80;;;;;;;23.49;90.39;100523.48;110331;1272;22358;-82
2023/08/14 06:56:11;;;;;;;4.40;1.30;;;;;;;23.60;90.00;100520.01;110305;1276;22131;-83
2023/08/14 06:58:42;;;;;;;5.80;1.90;;;;;;;23.72;89.37;100522.29;110330;1273;22325;-82
2023/08/14 07:01:13;;;;;;;4.50;1.20;;;;;;;23.82;89.00;100526.05;110311;1269;23028;-83
2023/08/14 07:03:44;;;;;;;8.90;1.80;;;;;;;23.91;88.69;100528.21;110342;1262;22390;-82
2023/08/14 07:06:14;;;;;;;8.40;1.40;;;;;;;24.02;88.08;100534.64;110296;1269;22226;-82
2023/08/14 07:08:45;;;;;;;5.50;1.30;;;;;;;24.13;87.60;100539.19;110272;1270;22405;-83
2023/08/14 07:11:16;;;;;;;4.80;1.20;;;;;;;24.22;87.00;100541.48;110321;1270;23060;-82
2023/08/14 07:13:47;;;;;;;5.90;1.40;;;;;;;24.32;85.98;100544.33;110344;1269;22343;-82
2023/08/14 07:16:17;;;;;;;4.90;1.40;;;;;;;24.42;85.73;100547.01;110335;1276;22925;-83
2023/08/14 07:18:48;;;;;;;7.50;1.30;;;;;;;24.51;85.44;100544.12;110275;1269;22374;-82
2023/08/14 07:21:19;;;;;;;5.90;1.30;;;;;;;24.59;85.22;100541.91;110314;1272;22350;-83
2023/08/14 07:23:50;;;;;;;3.90;1.20;;;;;;;24.68;84.47;100545.41;110304;1276;22305;-82
2023/08/14 07:26:21;;;;;;;5.70;1.50;;;;;;;24.77;84.03;100549.45;110301;1276;22194;-82
2023/08/14 07:28:52;;;;;;;6.80;1.50;;;;;;;24.86;83.70;100554.24;109531;1274;22660;-81
2023/08/14 07:31:24;;;;;;;3.60;1.30;;;;;;;24.96;83.40;100555.98;108677;1271;22548;-78
2023/08/14 07:33:54;;;;;;;5.30;1.30;;;;;;;25.05;82.99;100556.83;108209;1276;22563;-78
2023/08/14 07:36:25;;;;;;;8.60;1.40;;;;;;;25.12;82.84;100554.34;108240;1272;24343;-79
2023/08/14 07:38:56;;;;;;;6.10;1.10;;;;;;;25.21;82.56;100550.71;108269;1256;22542;-78
2023/08/14 07:41:27;;;;;;;9.00;1.30;;;;;;;25.30;81.58;100547.70;108313;1276;22686;-78
2023/08/14 07:43:57;;;;;;;6.20;1.10;;;;;;;25.37;80.38;100549.55;108237;1269;25342;-78
2023/08/14 07:46:28;;;;;;;4.50;1.40;;;;;;;25.41;79.81;100551.33;108259;1269;22518;-78
2023/08/14 07:48:59;;;;;;;4.40;1.20;;;;;;;25.46;79.09;100545.23;108077;1273;22523;-78
2023/08/14 07:51:30;;;;;;;4.90;1.10;;;;;;;25.50;78.29;100544.68;107976;1269;23395;-78
2023/08/14 07:54:01;;;;;;;2.90;0.90;;;;;;;25.54;77.75;100547.52;108054;1269;22536;-78
2023/08/14 07:56:31;;;;;;;2.90;1.00;;;;;;;25.59;77.86;100541.67;108105;1269;22627;-78
2023/08/14 07:59:02;;;;;;;3.80;1.30;;;;;;;25.65;77.73;100538.52;108123;1276;22543;-78
2023/08/14 08:01:33;;;;;;;5.00;0.90;;;;;;;25.71;77.33;100540.45;108103;1276;23017;-78
2023/08/14 08:04:04;;;;;;;3.60;1.00;;;;;;;25.75;76.18;100535.70;108083;1276;22516;-78
2023/08/14 08:06:35;;;;;;;3.90;0.90;;;;;;;25.76;75.24;100534.79;108744;1276;22591;-79
2023/08/14 08:09:07;;;;;;;5.20;1.30;;;;;;;25.77;74.80;100531.73;108102;1271;25055;-77
2023/08/14 08:11:38;;;;;;;5.20;1.20;;;;;;;25.81;74.92;100538.34;108224;1269;23349;-78
2023/08/14 08:14:09;;;;;;;6.60;1.10;;;;;;;25.87;74.14;100541.75;108151;1269;22524;-78
2023/08/14 08:16:40;;;;;;;6.00;1.30;;;;;;;25.91;73.36;100546.30;108052;1272;25242;-78
2023/08/14 08:19:11;;;;;;;5.90;1.20;;;;;;;25.93;72.96;100549.34;108142;1269;22677;-78
2023/08/14 08:21:42;;;;;;;4.50;1.30;;;;;;;25.96;72.80;100549.08;108077;1270;22556;-78
2023/08/14 08:24:13;;;;;;;2.80;0.90;;;;;;;26.02;72.52;100548.42;108027;1276;25415;-81
2023/08/14 08:26:44;;;;;;;7.30;1.20;;;;;;;26.06;72.55;100547.08;108811;1273;22456;-78
2023/08/14 08:29:15;;;;;;;4.70;0.90;;;;;;;26.12;72.08;100545.65;108087;1269;22543;-78
2023/08/14 08:31:45;;;;;;;6.50;1.30;;;;;;;26.15;70.91;100546.02;108810;1272;22559;-78
2023/08/14 08:34:16;;;;;;;7.90;1.20;;;;;;;26.14;70.48;100546.14;108577;1270;22540;-78
2023/08/14 08:36:47;;;;;;;5.00;1.30;;;;;;;26.15;70.71;100541.48;108037;1277;22561;-78
2023/08/14 08:39:18;;;;;;;4.00;1.10;;;;;;;26.20;70.45;100540.22;108100;1264;25412;-78
2023/08/14 08:41:52;;;;;;;4.80;1.10;;;;;;;26.26;70.44;100535.77;108646;1273;27633;-78
2023/08/14 08:44:26;;;;;;;5.10;1.20;;;;;;;26.32;70.44;100532.06;108178;1272;22576;-78
2023/08/14 08:47:03;;;;;;;3.20;0.80;;;;;;;26.40;70.74;100536.23;108278;1276;22533;-78
2023/08/14 08:49:35;;;;;;;3.90;1.10;;;;;;;26.47;70.33;100536.84;108182;1276;22613;-78
2023/08/14 08:52:07;;;;;;;6.70;1.20;;;;;;;26.52;69.53;100541.01;108109;1273;22579;-79
2023/08/14 08:54:39;;;;;;;3.40;0.90;;;;;;;26.56;69.33;100539.52;108003;1276;25431;-80
2023/08/14 08:57:12;;;;;;;4.10;1.20;;;;;;;26.64;69.02;100531.26;108441;1269;22514;-82
2023/08/14 08:59:44;;;;;;;4.50;1.40;;;;;;;26.69;68.34;100527.55;108508;1276;22487;-82
2023/08/14 09:02:14;;;;;;;3.90;1.00;;;;;;;26.70;67.75;100527.65;108603;1270;22543;-85
2023/08/14 09:04:45;;;;;;;3.70;0.90;;;;;;;26.72;67.85;100529.98;108620;1276;22545;-86
2023/08/14 09:07:17;;;;;;;3.50;1.00;;;;;;;26.77;68.02;100526.13;108705;1270;22613;-87
2023/08/14 09:09:48;;;;;;;5.80;1.20;;;;;;;26.84;67.82;100522.85;108575;1276;22605;-86
2023/08/14 09:12:19;;;;;;;6.10;1.10;;;;;;;26.87;67.56;100519.62;108664;1269;25298;-88
2023/08/14 09:15:04;;;;;;;6.70;1.70;;;;;;;26.92;67.59;100523.20;108661;1276;22588;-86
2023/08/14 09:17:35;;;;;;;3.50;1.10;;;;;;;27.00;66.79;100524.23;110326;1276;22595;-87
2023/08/14 09:20:09;;;;;;;5.50;1.20;;;;;;;27.04;66.81;100522.16;110267;1277;22794;-88
2023/08/14 09:22:41;;;;;;;4.10;0.90;;;;;;;27.06;66.49;100515.77;110268;1270;22150;-82
2023/08/14 09:25:12;;;;;;;4.60;1.00;;;;;;;27.11;66.65;100509.49;110293;1269;22761;-82
2023/08/14 09:27:44;;;;;;;4.20;0.90;;;;;;;27.14;65.62;100508.43;110275;1270;22271;-82
2023/08/14 09:30:15;;;;;;;5.70;1.10;;;;;;;27.16;66.09;100516.77;110215;1272;23406;-82
2023/08/14 09:32:46;;;;;;;4.50;1.10;;;;;;;27.23;65.85;100516.38;110312;1276;22385;-82
2023/08/14 09:35:17;;;;;;;4.80;1.40;;;;;;;27.29;65.30;100517.06;110291;1271;22173;-82
2023/08/14 09:37:49;;;;;;;5.10;1.10;;;;;;;27.33;65.15;100520.23;110263;1273;22345;-82
2023/08/14 09:40:20;;;;;;;4.20;1.50;;;;;;;27.38;65.03;100516.64;110254;1267;22399;-82
2023/08/14 09:42:51;;;;;;;5.60;1.20;;;;;;;27.45;65.37;100515.48;110245;1270;22557;-82
2023/08/14 09:45:23;;;;;;;4.20;1.10;;;;;;;27.56;64.99;100516.05;110249;1271;22177;-82
2023/08/14 09:48:00;;;;;;;6.10;1.40;;;;;;;27.64;65.08;100519.32;110261;1270;23205;-82
2023/08/14 09:50:32;;;;;;;11.20;1.80;;;;;;;27.73;64.42;100521.64;110220;1274;22419;-82
2023/08/14 09:53:03;;;;;;;5.50;1.30;;;;;;;27.75;63.96;100514.95;110273;1271;23797;-82
2023/08/14 09:55:36;;;;;;;15.10;3.20;;;;;;;27.75;63.47;100516.38;110299;1269;23221;-82
2023/08/14 09:58:08;;;;;;;7.50;1.50;;;;;;;27.76;63.30;100514.98;110327;1276;22795;-82
2023/08/14 10:00:39;;;;;;;6.20;1.40;;;;;;;27.79;63.59;100512.80;110294;1276;23034;-82
2023/08/14 10:03:11;;;;;;;11.80;1.50;;;;;;;27.89;64.06;100513.78;110311;1272;22235;-82
2023/08/14 10:05:43;;;;;;;4.00;1.00;;;;;;;28.01;64.26;100515.10;110342;1276;22181;-82
2023/08/14 10:08:15;;;;;;;3.50;1.20;;;;;;;28.13;64.20;100510.60;110378;1276;22330;-82
2023/08/14 10:10:46;;;;;;;3.60;0.90;;;;;;;28.25;63.70;100513.83;110356;1270;22195;-83
2023/08/14 10:13:21;;;;;;;4.20;1.00;;;;;;;28.34;62.95;100515.42;110405;1276;22239;-83
2023/08/14 10:15:56;;;;;;;2.70;1.00;;;;;;;28.36;62.62;100511.59;110378;1262;22328;-82
2023/08/14 10:18:29;;;;;;;3.70;1.20;;;;;;;28.42;61.83;100512.20;110396;1276;22796;-83
2023/08/14 10:21:03;;;;;;;4.30;1.40;;;;;;;28.49;61.56;100505.14;110288;1270;23863;-82
2023/08/14 10:23:35;;;;;;;3.40;1.00;;;;;;;28.52;60.02;100506.36;110277;1270;22164;-83
2023/08/14 10:26:07;;;;;;;2.60;0.80;;;;;;;28.52;60.79;100509.51;110248;1275;22278;-82
2023/08/14 10:28:38;;;;;;;4.50;1.30;;;;;;;28.57;60.76;100510.36;110345;1276;22319;-82
2023/08/14 10:31:10;;;;;;;6.70;1.20;;;;;;;28.64;60.63;100509.36;110281;1274;23416;-82
2023/08/14 10:33:42;;;;;;;6.10;1.30;;;;;;;28.70;60.29;100507.16;110296;1276;22143;-83
2023/08/14 10:36:20;;;;;;;3.40;1.40;;;;;;;28.74;59.77;100506.47;110320;1269;22327;-83
2023/08/14 10:38:51;;;;;;;7.40;1.40;;;;;;;28.80;59.42;100507.30;110378;1275;22137;-83
2023/08/14 10:41:22;;;;;;;8.30;1.20;;;;;;;28.86;59.57;100501.83;110286;1276;22312;-82
2023/08/14 10:43:58;;;;;;;4.20;1.30;;;;;;;28.93;59.50;100498.80;110445;1271;22107;-82
2023/08/14 10:46:30;;;;;;;4.10;1.20;;;;;;;28.99;58.51;100501.29;110526;1270;22206;-82
2023/08/14 10:49:01;;;;;;;6.10;1.10;;;;;;;29.07;58.71;100494.67;110456;1267;22265;-82
2023/08/14 10:51:33;;;;;;;5.40;1.10;;;;;;;29.09;57.58;100491.40;110273;1269;22441;-82
2023/08/14 10:54:13;;;;;;;4.50;1.10;;;;;;;29.12;58.12;100488.20;110309;1276;22256;-82
2023/08/14 10:56:43;;;;;;;;;;;;;;;29.17;57.60;100491.20;110288;1272;22357;-82
2023/08/14 10:59:31;;;;;;;3.30;1.00;;;;;;;29.21;57.24;100485.20;110297;1269;22290;-82
2023/08/14 11:02:15;;;;;;;5.50;1.30;;;;;;;29.26;57.23;100486.88;110328;1272;22216;-82
2023/08/14 11:08:04;;;;;;;7.60;1.10;;;;;;;29.37;56.27;100487.73;102036;1321;546150;-59
2023/08/14 11:10:35;;;;;;;3.90;1.20;;;;;;;29.42;55.60;100486.05;109323;1292;22717;-59
2023/08/14 11:13:08;;;;;;;3.80;1.00;;;;;;;29.45;55.29;100482.70;109324;1288;22206;-59
2023/08/14 11:15:40;;;;;;;6.70;1.20;;;;;;;29.51;55.22;100484.12;109235;1292;22228;-59
2023/08/14 11:18:11;;;;;;;2.90;1.00;;;;;;;29.55;54.35;100485.05;109359;1292;22182;-59
2023/08/14 11:20:45;;;;;;;4.30;1.00;;;;;;;29.62;54.34;100479.89;105694;1281;5413462;-59
2023/08/14 11:23:16;;;;;;;4.10;1.40;;;;;;;29.67;54.21;100484.43;109908;1274;22434;-59
2023/08/14 11:25:46;;;;;;;3.70;1.20;;;;;;;29.73;54.31;100481.02;109870;1279;23026;-59
2023/08/14 11:28:17;;;;;;;4.10;1.10;;;;;;;29.77;54.02;100482.89;109894;1275;22316;-59
2023/08/14 11:30:48;;;;;;;4.60;1.10;;;;;;;29.81;53.44;100486.04;109926;1277;22201;-60
2023/08/14 11:33:23;;;;;;;4.60;1.30;;;;;;;29.81;52.83;100487.67;109932;1280;22126;-59
2023/08/14 11:36:15;;;;;;;7.40;1.60;;;;;;;29.84;52.81;100486.73;109918;1276;22210;-63
2023/08/14 11:39:00;;;;;;;4.80;1.00;;;;;;;29.90;52.62;100488.14;109890;1280;22214;-64
2023/08/14 11:41:33;;;;;;;5.20;1.20;;;;;;;29.90;51.92;100482.99;109849;1276;22160;-62